Time;durP1;ratioP1;P1;durP2;ratioP2;P2;SDS_P1;SDS_P2;PMS_P1;PMS_P2;Temp;Humidity;BMP_temperature;BMP_pressure;BME280_temperature;BME280_humidity;BME280_pressure;Samples;Min_cycle;Max_cycle;Signal;HPM_P1;HPM_P2
2022/04/22 00:00:39;;;;;;;16.00;9.05;;;;;;;8.56;54.16;100838.23;1741172;82;25852;-61
2022/04/22 00:03:08;;;;;;;18.87;8.58;;;;;;;8.56;53.94;100836.05;1705285;84;25507;-61
2022/04/22 00:05:36;;;;;;;16.67;8.63;;;;;;;8.54;54.04;100841.52;1751654;81;26544;-62
2022/04/22 00:08:05;;;;;;;15.13;9.78;;;;;;;8.50;54.28;100841.88;1717805;83;25849;-61
2022/04/22 00:10:32;;;;;;;15.85;8.65;;;;;;;8.47;54.26;100841.64;1718387;82;27549;-62
2022/04/22 00:12:59;;;;;;;16.73;8.53;;;;;;;8.44;54.63;100843.17;1717918;83;25888;-61
2022/04/22 00:15:26;;;;;;;12.37;8.90;;;;;;;8.39;54.48;100842.70;1718227;83;25717;-61
2022/04/22 00:17:52;;;;;;;15.00;9.38;;;;;;;8.35;54.91;100846.58;1718342;83;26579;-62
2022/04/22 00:20:19;;;;;;;12.63;8.65;;;;;;;8.33;55.16;100849.39;1718357;83;25788;-61
2022/04/22 00:22:46;;;;;;;13.48;9.55;;;;;;;8.31;55.05;100843.28;1717724;83;27404;-61
2022/04/22 00:25:14;;;;;;;16.48;8.83;;;;;;;8.28;55.09;100843.55;1687877;85;27181;-61
2022/04/22 00:27:41;;;;;;;18.32;9.90;;;;;;;8.26;55.47;100846.83;1716930;83;25734;-61
2022/04/22 00:30:12;;;;;;;15.08;9.25;;;;;;;8.22;55.78;100842.66;1717023;83;26824;-61
2022/04/22 00:32:40;;;;;;;17.73;9.60;;;;;;;8.18;55.87;100850.59;1716815;83;25927;-61
2022/04/22 00:35:08;;;;;;;15.55;8.33;;;;;;;8.13;55.96;100848.27;1716731;83;27462;-61
2022/04/22 00:37:36;;;;;;;16.30;9.53;;;;;;;8.12;55.78;100848.73;1716693;83;25748;-61
2022/04/22 00:40:04;;;;;;;19.65;9.85;;;;;;;8.11;55.91;100844.34;1716888;83;25536;-61
2022/04/22 00:42:31;;;;;;;18.67;10.40;;;;;;;8.09;55.88;100855.69;1717091;83;25910;-62
2022/04/22 00:44:58;;;;;;;15.90;10.43;;;;;;;8.06;56.04;100850.55;1716871;83;25701;-61
2022/04/22 00:47:26;;;;;;;14.63;8.98;;;;;;;8.04;56.90;100849.81;1716919;83;27629;-61
2022/04/22 00:49:53;;;;;;;16.67;8.80;;;;;;;8.02;56.73;100845.08;1717311;83;26182;-61
2022/04/22 00:52:22;;;;;;;13.80;9.33;;;;;;;8.01;57.06;100844.70;1718551;83;25765;-61
2022/04/22 00:54:49;;;;;;;15.28;8.78;;;;;;;7.99;56.90;100847.48;1718399;83;25986;-61
2022/04/22 00:57:18;;;;;;;15.05;9.00;;;;;;;8.00;57.08;100848.36;1718335;82;25826;-61
2022/04/22 00:59:46;;;;;;;17.20;8.30;;;;;;;8.02;57.47;100846.42;1718236;83;28164;-61
2022/04/22 01:02:13;;;;;;;14.85;8.93;;;;;;;8.03;57.29;100842.73;1718263;83;25851;-61
2022/04/22 01:10:10;;;;;;;15.40;8.90;;;;;;;8.10;57.60;100839.98;1705087;84;25753;-61
2022/04/22 01:12:37;;;;;;;15.32;8.50;;;;;;;8.10;57.85;100845.81;1740955;82;27486;-61
2022/04/22 01:15:06;;;;;;;14.15;9.05;;;;;;;8.12;58.02;100849.23;1705099;84;25922;-61
2022/04/22 01:17:33;;;;;;;16.82;9.18;;;;;;;8.12;57.72;100844.71;1741076;82;25737;-61
2022/04/22 01:20:00;;;;;;;18.87;8.75;;;;;;;8.13;57.76;100850.45;1705224;83;25778;-61
2022/04/22 01:22:27;;;;;;;16.00;9.68;;;;;;;8.15;57.95;100852.52;1745752;80;25790;-61
2022/04/22 01:24:59;;;;;;;13.48;8.50;;;;;;;8.14;57.79;100855.34;1738674;82;27309;-61
2022/04/22 01:27:29;;;;;;;18.55;9.90;;;;;;;8.13;57.69;100854.47;1738557;82;25745;-61
2022/04/22 01:30:02;;;;;;;13.93;8.83;;;;;;;8.08;57.62;100851.77;1738561;82;25815;-61
2022/04/22 01:32:29;;;;;;;14.75;9.38;;;;;;;8.06;57.59;100852.39;1738746;81;25803;-61
2022/04/22 01:34:56;;;;;;;20.05;10.40;;;;;;;8.03;57.38;100845.42;1738750;82;25533;-61
2022/04/22 01:37:24;;;;;;;24.27;10.50;;;;;;;7.98;57.19;100846.27;1738661;82;27452;-61
2022/04/22 01:39:51;;;;;;;14.63;10.32;;;;;;;7.93;57.34;100851.98;1738666;81;25650;-61
2022/04/22 01:42:19;;;;;;;15.38;10.48;;;;;;;7.86;57.07;100848.07;1738613;82;25715;-61
2022/04/22 01:44:46;;;;;;;17.37;9.33;;;;;;;7.79;57.20;100846.33;1738588;81;26705;-62
2022/04/22 01:47:14;;;;;;;15.35;10.18;;;;;;;7.72;57.29;100845.56;1738828;82;25787;-61
2022/04/22 01:49:42;;;;;;;17.52;10.70;;;;;;;7.63;57.47;100848.47;1733092;82;27463;-61
2022/04/22 01:52:08;;;;;;;19.90;11.57;;;;;;;7.50;57.47;100847.19;1724584;81;25712;-62
2022/04/22 01:54:35;;;;;;;20.12;11.28;;;;;;;7.41;57.61;100843.86;1724672;83;25776;-61
2022/04/22 01:57:04;;;;;;;14.07;11.03;;;;;;;7.28;58.12;100839.41;1724969;83;25759;-61
2022/04/22 01:59:30;;;;;;;19.50;11.25;;;;;;;7.18;58.17;100837.91;1732084;82;26067;-62
2022/04/22 02:01:58;;;;;;;22.37;12.05;;;;;;;7.11;57.97;100837.98;1732636;82;28188;-61
2022/04/22 02:04:27;;;;;;;21.30;12.10;;;;;;;7.04;58.24;100836.23;1732356;81;25781;-61
2022/04/22 02:06:56;;;;;;;19.60;11.97;;;;;;;6.98;58.37;100834.48;1732633;82;25702;-61
2022/04/22 02:09:23;;;;;;;17.85;10.95;;;;;;;6.94;58.45;100837.02;1732211;82;26058;-61
2022/04/22 02:11:49;;;;;;;19.02;11.43;;;;;;;6.88;58.30;100832.97;1732655;82;25455;-61
2022/04/22 02:14:16;;;;;;;13.68;10.58;;;;;;;6.82;58.34;100832.92;1732582;82;27453;-61
2022/04/22 02:16:42;;;;;;;23.42;12.58;;;;;;;6.77;58.59;100828.38;1732478;82;25854;-61
2022/04/22 02:19:09;;;;;;;21.97;11.28;;;;;;;6.70;58.50;100828.45;1732852;82;25708;-61
2022/04/22 02:21:37;;;;;;;16.27;12.18;;;;;;;6.63;58.81;100832.52;1732324;82;25823;-61
2022/04/22 02:24:06;;;;;;;18.50;11.95;;;;;;;6.55;59.61;100836.61;1738409;82;25785;-61
2022/04/22 02:28:31;;;;;;;20.20;11.83;;;;;;;6.49;59.59;100839.72;1739329;82;27524;-61
2022/04/22 02:29:02;;;;;;;18.65;13.03;;;;;;;6.42;59.47;100835.74;1735971;82;26090;-61
2022/04/22 02:31:29;;;;;;;21.25;13.25;;;;;;;6.37;59.44;100841.41;1739236;82;25740;-61
2022/04/22 02:33:55;;;;;;;18.85;12.18;;;;;;;6.33;59.55;100841.73;1739523;82;25767;-61
2022/04/22 02:36:22;;;;;;;23.38;12.18;;;;;;;6.29;59.78;100841.59;1739453;82;25779;-61
2022/04/22 02:38:48;;;;;;;24.23;13.28;;;;;;;6.25;59.78;100838.28;1739606;82;27692;-61
2022/04/22 02:46:46;;;;;;;17.75;12.13;;;;;;;6.20;60.51;100839.93;1739011;82;27980;-61
2022/04/22 02:49:13;;;;;;;16.73;10.82;;;;;;;6.19;61.12;100840.89;1739925;82;25768;-62
2022/04/22 02:51:40;;;;;;;24.18;12.23;;;;;;;6.16;60.87;100834.91;1741035;82;27409;-61
2022/04/22 02:54:06;;;;;;;18.20;11.48;;;;;;;6.15;61.00;100834.03;1741088;82;25724;-62
2022/04/22 02:56:33;;;;;;;21.07;13.13;;;;;;;6.19;61.20;100836.87;1740889;82;25825;-62
2022/04/22 02:59:00;;;;;;;18.52;12.07;;;;;;;6.21;61.18;100833.63;1733132;81;25943;-62
2022/04/22 03:01:27;;;;;;;20.25;12.47;;;;;;;6.25;61.46;100837.78;1730157;82;25811;-62
2022/04/22 03:03:54;;;;;;;18.30;12.60;;;;;;;6.27;61.33;100836.36;1730111;81;27458;-61
2022/04/22 03:06:24;;;;;;;21.85;10.93;;;;;;;6.29;61.37;100833.58;1730116;81;25727;-62
2022/04/22 03:08:50;;;;;;;17.52;11.95;;;;;;;6.30;61.31;100836.63;1730090;81;25783;-62
2022/04/22 03:11:21;;;;;;;24.18;11.68;;;;;;;6.29;61.31;100837.08;1730099;82;25942;-62
2022/04/22 03:13:46;;;;;;;21.48;13.35;;;;;;;6.30;61.40;100833.95;1730063;81;25764;-61
2022/04/22 03:16:12;;;;;;;24.37;12.63;;;;;;;6.31;61.26;100839.17;1729934;82;28475;-62
2022/04/22 03:18:41;;;;;;;25.62;12.68;;;;;;;6.33;61.33;100845.27;1729952;81;25460;-61
2022/04/22 03:21:08;;;;;;;25.80;13.03;;;;;;;6.33;61.28;100843.94;1730056;81;25724;-61
2022/04/22 03:23:35;;;;;;;21.48;13.00;;;;;;;6.32;61.23;100847.56;1737349;82;26121;-61
2022/04/22 03:26:03;;;;;;;22.07;13.13;;;;;;;6.33;61.48;100847.95;1740967;81;25475;-61
2022/04/22 03:28:30;;;;;;;30.65;17.40;;;;;;;6.25;60.87;100844.45;1740959;81;27468;-61
2022/04/22 03:30:56;;;;;;;44.08;22.40;;;;;;;6.24;60.90;100855.27;1740853;82;25806;-61
2022/04/22 03:33:23;;;;;;;43.83;19.52;;;;;;;6.21;60.68;100853.66;1740930;82;25462;-61
2022/04/22 03:36:12;;;;;;;24.32;15.90;;;;;;;6.14;60.56;100851.02;1740746;82;25859;-61
2022/04/22 03:38:40;;;;;;;23.57;15.58;;;;;;;6.09;60.57;100853.16;1711274;83;26028;-61
2022/04/22 03:41:07;;;;;;;21.20;13.03;;;;;;;6.05;60.44;100853.86;1711250;83;28195;-61
2022/04/22 03:43:33;;;;;;;17.70;12.60;;;;;;;5.96;60.27;100849.95;1711243;83;25485;-61
2022/04/22 03:46:00;;;;;;;19.95;13.70;;;;;;;5.90;60.35;100849.05;1711046;83;25462;-61
2022/04/22 03:48:28;;;;;;;24.10;12.78;;;;;;;5.85;60.52;100862.32;1711230;83;26450;-61
2022/04/22 03:50:55;;;;;;;26.00;12.53;;;;;;;5.80;60.52;100854.16;1701872;83;25724;-61
2022/04/22 03:53:22;;;;;;;21.62;12.50;;;;;;;5.76;60.62;100855.80;1700865;83;27498;-61
2022/04/22 03:55:48;;;;;;;16.20;10.82;;;;;;;5.72;60.68;100852.95;1700539;84;25741;-61
2022/04/22 03:58:18;;;;;;;28.90;12.55;;;;;;;5.70;60.71;100857.06;1711418;83;25839;-61
2022/04/22 04:00:52;;;;;;;18.73;12.40;;;;;;;5.67;60.94;100857.75;1726547;82;26454;-61
2022/04/22 04:03:21;;;;;;;18.23;12.10;;;;;;;5.65;60.91;100853.83;1726799;83;25866;-61
2022/04/22 04:05:50;;;;;;;21.73;12.15;;;;;;;5.61;60.95;100855.01;1726875;83;28107;-61
2022/04/22 04:08:20;;;;;;;21.52;12.55;;;;;;;5.59;60.91;100855.13;1726622;83;26262;-61
2022/04/22 04:16:20;;;;;;;28.85;13.25;;;;;;;5.64;61.62;100866.83;1726949;82;25702;-61
2022/04/22 04:18:47;;;;;;;26.93;14.53;;;;;;;5.68;61.95;100863.47;1726598;82;28461;-62
2022/04/22 04:24:00;;;;;;;23.30;14.25;;;;;;;5.74;61.88;100863.89;1694586;83;25555;-62
2022/04/22 04:26:27;;;;;;;27.70;14.50;;;;;;;5.82;61.94;100870.56;1688017;85;25800;-61
2022/04/22 04:28:54;;;;;;;25.92;14.83;;;;;;;5.89;61.98;100871.85;1687912;85;25757;-61
2022/04/22 04:31:22;;;;;;;31.42;16.97;;;;;;;5.97;62.07;100869.52;1687868;85;27503;-61
2022/04/22 04:33:49;;;;;;;55.52;25.72;;;;;;;6.03;62.10;100873.12;1687838;85;25560;-61
2022/04/22 04:36:16;;;;;;;72.15;29.57;;;;;;;6.13;62.09;100874.71;1688191;85;25858;-61
2022/04/22 04:38:44;;;;;;;47.05;21.85;;;;;;;6.25;62.12;100877.02;1671623;85;26992;-61
2022/04/22 04:41:13;;;;;;;34.38;19.17;;;;;;;6.37;62.25;100881.98;1671084;85;25557;-61
2022/04/22 04:43:40;;;;;;;26.48;16.25;;;;;;;6.50;62.17;100876.14;1671076;85;28242;-61
2022/04/22 04:46:08;;;;;;;28.65;15.98;;;;;;;6.63;62.22;100876.17;1670858;85;25890;-61
2022/04/22 04:48:38;;;;;;;31.85;14.53;;;;;;;6.77;62.16;100880.51;1670832;85;25695;-61
2022/04/22 04:51:06;;;;;;;24.45;13.83;;;;;;;6.91;62.17;100876.02;1671477;85;25851;-61
2022/04/22 04:53:34;;;;;;;28.30;13.58;;;;;;;7.04;61.90;100877.70;1671524;85;25810;-60
2022/04/22 04:56:01;;;;;;;33.00;14.28;;;;;;;7.21;61.81;100879.62;1671834;85;27515;-61
2022/04/22 04:58:28;;;;;;;28.40;13.20;;;;;;;7.39;61.79;100883.27;1673376;85;25787;-61
2022/04/22 05:00:55;;;;;;;30.72;13.38;;;;;;;7.54;61.60;100879.44;1675747;85;25812;-61
2022/04/22 05:03:22;;;;;;;26.60;12.05;;;;;;;7.68;61.25;100879.28;1675761;85;25993;-61
2022/04/22 05:05:49;;;;;;;31.02;13.22;;;;;;;7.87;61.21;100878.38;1675698;85;25805;-61
2022/04/22 05:08:16;;;;;;;27.73;12.20;;;;;;;8.06;60.87;100887.22;1675562;85;27447;-61
2022/04/22 05:10:43;;;;;;;24.25;13.00;;;;;;;8.23;60.57;100879.22;1675579;85;25815;-61
2022/04/22 05:13:10;;;;;;;25.35;13.93;;;;;;;8.36;60.23;100877.30;1676028;85;25736;-61
2022/04/22 05:15:39;;;;;;;22.32;12.07;;;;;;;8.49;59.75;100883.94;1675559;85;25839;-61
2022/04/22 05:18:06;;;;;;;29.10;13.18;;;;;;;8.63;59.46;100885.53;1675912;85;26078;-61
2022/04/22 05:20:34;;;;;;;29.42;14.07;;;;;;;8.76;59.27;100880.05;1675563;85;27494;-61
2022/04/22 05:23:01;;;;;;;31.25;13.65;;;;;;;8.90;59.07;100874.43;1672527;85;25814;-62
2022/04/22 05:25:29;;;;;;;29.50;13.00;;;;;;;9.02;58.53;100874.43;1668068;84;25728;-61
2022/04/22 05:27:56;;;;;;;31.17;13.70;;;;;;;9.10;58.08;100878.69;1675167;84;25757;-61
2022/04/22 05:33:10;;;;;;;28.45;13.65;;;;;;;9.31;57.76;100876.59;1681746;85;27479;-62
2022/04/22 05:35:40;;;;;;;30.23;14.33;;;;;;;9.40;57.55;100887.41;1681594;83;25767;-61
2022/04/22 05:38:07;;;;;;;27.40;14.18;;;;;;;9.49;57.18;100887.63;1680117;83;25509;-61
2022/04/22 05:40:38;;;;;;;35.78;14.98;;;;;;;9.57;56.91;100885.16;1678864;85;26024;-62
2022/04/22 05:43:10;;;;;;;30.82;15.50;;;;;;;9.63;56.79;100884.67;1679104;85;25886;-61
2022/04/22 05:45:37;;;;;;;32.10;14.95;;;;;;;9.76;56.71;100884.98;1678967;85;27463;-61
2022/04/22 05:48:08;;;;;;;33.88;16.27;;;;;;;9.85;56.49;100882.39;1678987;85;25731;-61
2022/04/22 05:50:35;;;;;;;33.48;15.75;;;;;;;9.98;56.31;100890.75;1673178;85;25765;-61
2022/04/22 05:53:01;;;;;;;41.85;16.20;;;;;;;10.11;56.17;100899.49;1639099;87;25774;-61
2022/04/22 05:55:30;;;;;;;36.03;16.65;;;;;;;10.23;55.88;100898.06;1634561;87;25813;-62
2022/04/22 05:57:59;;;;;;;36.60;16.10;;;;;;;10.32;55.53;100894.12;1673008;85;28159;-61
2022/04/22 06:00:30;;;;;;;30.80;15.95;;;;;;;10.43;55.30;100902.63;1676322;85;25825;-61
2022/04/22 06:02:57;;;;;;;33.75;15.93;;;;;;;10.54;54.92;100904.89;1676591;85;25572;-61
2022/04/22 06:05:25;;;;;;;35.43;17.65;;;;;;;10.63;54.80;100910.81;1676221;85;25797;-61
2022/04/22 06:10:39;;;;;;;35.33;18.45;;;;;;;10.85;54.22;100914.34;1676152;85;28818;-61
2022/04/22 06:13:07;;;;;;;30.27;15.53;;;;;;;10.96;54.15;100908.36;1676202;85;25825;-61
2022/04/22 06:15:35;;;;;;;26.52;13.78;;;;;;;11.09;53.66;100905.91;1676382;85;25786;-62
2022/04/22 06:18:02;;;;;;;32.78;15.03;;;;;;;11.17;53.27;100902.04;1676350;85;25798;-61
2022/04/22 06:20:30;;;;;;;27.87;14.10;;;;;;;11.30;53.03;100907.69;1676348;85;25806;-62
2022/04/22 06:22:57;;;;;;;28.95;15.20;;;;;;;11.41;52.87;100902.19;1674889;85;27607;-63
2022/04/22 06:25:24;;;;;;;26.20;13.08;;;;;;;11.53;52.65;100902.92;1672446;85;25795;-61
2022/04/22 06:27:52;;;;;;;30.15;14.23;;;;;;;11.63;52.35;100906.96;1672573;85;25860;-61
2022/04/22 06:30:22;;;;;;;20.08;12.70;;;;;;;11.73;52.12;100897.05;1672517;85;25793;-61
2022/04/22 06:32:52;;;;;;;28.73;13.70;;;;;;;11.85;51.16;100890.55;1672579;85;25717;-62
2022/04/22 06:35:21;;;;;;;22.35;12.90;;;;;;;11.91;50.88;100887.78;1672257;84;28183;-61
2022/04/22 06:37:52;;;;;;;26.82;13.40;;;;;;;11.96;51.10;100885.50;1684261;83;25751;-61
2022/04/22 06:46:35;;;;;;;21.60;11.97;;;;;;;12.33;50.53;100871.77;1694559;81;26129;-61
2022/04/22 06:49:04;;;;;;;21.12;12.78;;;;;;;12.48;50.23;100878.43;1689287;84;27546;-62
2022/04/22 06:51:33;;;;;;;20.37;12.15;;;;;;;12.61;49.90;100870.49;1705213;83;25793;-64
2022/04/22 06:54:02;;;;;;;37.03;15.30;;;;;;;12.74;49.81;100857.53;1705319;83;25783;-62
2022/04/22 06:56:29;;;;;;;27.98;12.50;;;;;;;12.89;49.08;100850.28;1705738;83;26623;-62
2022/04/22 06:58:57;;;;;;;22.98;14.05;;;;;;;12.99;49.13;100861.41;1721247;83;25819;-63
2022/04/22 07:01:25;;;;;;;23.62;12.73;;;;;;;13.10;48.15;100857.64;1728876;82;27423;-63
2022/04/22 07:03:55;;;;;;;25.97;11.95;;;;;;;13.18;46.49;100854.17;1728651;83;25741;-62
2022/04/22 07:06:22;;;;;;;22.77;11.20;;;;;;;13.25;47.24;100853.07;1728545;83;25667;-63
2022/04/22 07:08:50;;;;;;;23.73;10.80;;;;;;;13.40;46.37;100848.87;1728543;82;25797;-61
2022/04/22 07:11:28;;;;;;;20.48;10.98;;;;;;;13.51;46.66;100841.55;1728733;83;25817;-62
2022/04/22 07:13:58;;;;;;;21.37;11.78;;;;;;;13.64;46.24;100840.67;1724993;83;28287;-62
2022/04/22 07:16:26;;;;;;;17.02;10.25;;;;;;;13.81;46.08;100843.01;1728384;82;25684;-62
2022/04/22 07:19:03;;;;;;;21.65;10.40;;;;;;;13.90;45.93;100848.00;1728666;83;25510;-63
2022/04/22 07:21:32;;;;;;;16.95;9.58;;;;;;;13.99;45.40;100853.82;1724182;82;25773;-63
2022/04/22 07:24:11;;;;;;;17.73;10.03;;;;;;;14.14;45.42;100853.24;1728390;82;25876;-62
2022/04/22 07:26:42;;;;;;;21.95;10.43;;;;;;;14.25;44.18;100848.94;1728335;83;28123;-63
2022/04/22 07:29:12;;;;;;;19.70;9.10;;;;;;;14.37;43.32;100854.92;1728725;83;25824;-61
2022/04/22 07:31:40;;;;;;;20.97;8.88;;;;;;;14.48;43.32;100855.16;1721659;81;25771;-61
2022/04/22 07:34:10;;;;;;;17.62;9.50;;;;;;;14.50;42.69;100856.72;1716113;83;25803;-62
2022/04/22 07:36:38;;;;;;;20.35;10.28;;;;;;;14.61;43.14;100839.86;1716049;83;25840;-62
2022/04/22 07:39:06;;;;;;;20.92;9.53;;;;;;;14.77;42.91;100847.23;1715821;83;27582;-62
2022/04/22 07:41:36;;;;;;;14.07;9.08;;;;;;;14.90;41.91;100842.23;1716031;83;26474;-62
2022/04/22 07:46:58;;;;;;;20.65;9.38;;;;;;;15.15;41.17;100843.14;1716167;83;25914;-62
2022/04/22 07:49:25;;;;;;;12.97;8.17;;;;;;;15.26;40.29;100844.72;1713599;83;25819;-63
2022/04/22 07:51:53;;;;;;;17.40;8.83;;;;;;;15.31;39.54;100843.70;1711263;81;27476;-61
2022/04/22 07:54:20;;;;;;;19.17;8.93;;;;;;;15.40;40.06;100844.59;1715815;83;26018;-62
2022/04/22 07:56:47;;;;;;;12.68;7.80;;;;;;;15.53;37.90;100852.72;1716150;83;25788;-61
2022/04/22 07:59:14;;;;;;;10.85;6.83;;;;;;;15.57;37.36;100843.25;1710052;82;25958;-63
2022/04/22 08:01:40;;;;;;;16.90;7.55;;;;;;;15.68;35.65;100846.14;1708357;83;25788;-61
2022/04/22 08:04:10;;;;;;;13.50;7.47;;;;;;;15.73;36.11;100847.86;1716550;81;27513;-62
2022/04/22 08:06:37;;;;;;;13.48;8.05;;;;;;;15.87;34.91;100827.38;1715893;83;25693;-62
2022/04/22 08:09:04;;;;;;;15.00;7.33;;;;;;;15.83;33.67;100832.77;1717201;81;25759;-62
2022/04/22 08:11:30;;;;;;;15.25;8.18;;;;;;;15.84;34.98;100835.84;1716208;83;26117;-62
2022/04/22 08:14:00;;;;;;;18.92;8.73;;;;;;;15.95;35.46;100833.64;1715961;83;25965;-64
2022/04/22 08:16:26;;;;;;;14.50;7.85;;;;;;;16.05;35.25;100836.69;1715861;83;27645;-63
2022/04/22 08:18:53;;;;;;;17.50;7.70;;;;;;;16.17;35.16;100830.39;1715626;83;26167;-62
2022/04/22 08:21:20;;;;;;;13.83;6.50;;;;;;;16.24;34.44;100824.11;1715871;83;25783;-63
2022/04/22 08:23:48;;;;;;;17.05;6.00;;;;;;;16.33;34.79;100820.86;1715886;83;25791;-62
2022/04/22 08:26:16;;;;;;;11.93;6.85;;;;;;;16.45;33.79;100815.07;1715890;83;25690;-62
2022/04/22 08:28:43;;;;;;;14.83;7.17;;;;;;;16.49;32.87;100816.43;1716444;82;27588;-63
2022/04/22 08:31:10;;;;;;;15.78;7.75;;;;;;;16.54;32.07;100816.22;1715896;83;26487;-62
2022/04/22 08:33:38;;;;;;;14.25;7.20;;;;;;;16.56;31.95;100811.99;1681397;85;25804;-63
2022/04/22 08:36:06;;;;;;;15.98;7.30;;;;;;;16.62;32.08;100809.92;1671162;85;26603;-63
2022/04/22 08:38:33;;;;;;;13.58;6.65;;;;;;;16.78;32.70;100793.22;1671420;85;25563;-62
2022/04/22 08:41:01;;;;;;;20.37;6.53;;;;;;;16.93;32.29;100800.11;1681257;85;27493;-62
2022/04/22 08:43:33;;;;;;;10.00;5.67;;;;;;;17.05;32.65;100798.21;1671493;85;26055;-63
2022/04/22 08:46:03;;;;;;;13.20;6.33;;;;;;;17.24;32.69;100803.39;1670964;85;25711;-63
2022/04/22 08:51:19;;;;;;;10.72;6.25;;;;;;;17.45;31.32;100801.38;1653351;86;25720;-62
2022/04/22 08:53:51;;;;;;;12.00;6.33;;;;;;;17.55;30.96;100797.05;1625473;88;27507;-62
2022/04/22 08:56:19;;;;;;;14.55;5.70;;;;;;;17.66;30.26;100794.73;1653544;86;25900;-61
2022/04/22 08:58:47;;;;;;;13.75;5.45;;;;;;;17.68;30.65;100800.84;1660160;85;25879;-61
2022/04/22 09:01:14;;;;;;;13.93;5.60;;;;;;;17.79;28.32;100799.59;1652214;86;25816;-62
2022/04/22 09:03:40;;;;;;;11.22;4.47;;;;;;;17.80;28.21;100799.89;1652304;86;26102;-63
2022/04/22 09:06:07;;;;;;;11.30;4.53;;;;;;;17.86;27.87;100812.45;1652442;86;27476;-63
2022/04/22 09:08:36;;;;;;;9.90;4.80;;;;;;;17.82;27.27;100791.56;1700565;83;25738;-63
2022/04/22 09:11:10;;;;;;;8.40;5.17;;;;;;;17.85;27.58;100796.63;1682446;84;25742;-63
2022/04/22 09:13:38;;;;;;;6.55;4.47;;;;;;;17.93;27.60;100799.80;1700321;84;27922;-63
2022/04/22 09:16:05;;;;;;;10.48;5.17;;;;;;;17.95;27.72;100793.66;1700528;84;25732;-63
2022/04/22 09:18:35;;;;;;;8.88;4.80;;;;;;;18.07;27.57;100791.36;1700452;84;27418;-62
2022/04/22 09:21:02;;;;;;;10.85;4.72;;;;;;;18.20;27.67;100782.02;1700148;84;27325;-63
2022/04/22 09:23:34;;;;;;;6.22;3.90;;;;;;;18.37;27.33;100798.21;1696141;84;25516;-62
2022/04/22 09:26:04;;;;;;;8.28;4.55;;;;;;;18.45;27.29;100796.22;1693825;84;25789;-62
2022/04/22 09:28:31;;;;;;;7.90;4.30;;;;;;;18.54;26.51;100788.82;1660281;86;25734;-62
2022/04/22 09:31:00;;;;;;;5.92;4.17;;;;;;;18.63;26.54;100788.19;1670860;85;27598;-62
2022/04/22 09:33:47;;;;;;;6.75;3.90;;;;;;;18.61;26.81;100801.14;1685984;85;25763;-62
2022/04/22 09:45:03;;;;;;;5.70;3.95;;;;;;;19.24;25.22;100785.69;1676923;85;28501;-62
2022/04/22 09:47:32;;;;;;;4.45;3.62;;;;;;;19.44;24.30;100796.83;1676577;85;26075;-62
2022/04/22 09:50:00;;;;;;;5.12;3.52;;;;;;;19.35;24.34;100794.73;1677568;84;25883;-62
2022/04/22 09:52:31;;;;;;;7.50;3.87;;;;;;;19.32;24.81;100786.92;1679283;85;25829;-63
2022/04/22 09:55:07;;;;;;;15.55;4.60;;;;;;;19.45;25.39;100783.52;1678940;85;25855;-62
2022/04/22 09:57:55;;;;;;;8.58;3.80;;;;;;;19.64;25.76;100781.14;1677483;84;27447;-62
2022/04/22 10:00:30;;;;;;;8.23;4.33;;;;;;;19.82;25.97;100783.42;1708511;84;25756;-63
2022/04/22 10:02:59;;;;;;;10.35;3.37;;;;;;;19.99;24.82;100778.56;1708910;84;25845;-63
2022/04/22 10:05:31;;;;;;;9.75;4.33;;;;;;;20.03;25.07;100771.64;1708608;83;25737;-62
2022/04/22 10:08:04;;;;;;;12.20;4.00;;;;;;;20.09;25.87;100779.03;1708812;84;26037;-62
2022/04/22 10:10:44;;;;;;;8.58;4.10;;;;;;;20.24;25.28;100771.27;1708636;84;27490;-63
2022/04/22 10:13:16;;;;;;;6.90;4.35;;;;;;;20.28;25.31;100772.53;1689854;84;25979;-62
2022/04/22 10:15:47;;;;;;;7.67;4.00;;;;;;;20.27;25.00;100771.70;1708416;84;25766;-62
2022/04/22 10:18:16;;;;;;;7.62;3.90;;;;;;;20.28;25.42;100767.93;1680947;84;26739;-62
2022/04/22 10:20:43;;;;;;;10.40;4.20;;;;;;;20.30;24.60;100765.85;1708597;83;25708;-62
2022/04/22 10:23:11;;;;;;;6.80;3.85;;;;;;;20.16;23.93;100777.21;1702449;83;27516;-63
2022/04/22 10:25:41;;;;;;;8.80;4.62;;;;;;;20.06;24.35;100774.48;1696400;84;25773;-63
2022/04/22 10:28:13;;;;;;;11.80;3.90;;;;;;;20.07;24.14;100779.77;1696161;83;25547;-64
2022/04/22 10:30:43;;;;;;;13.20;4.25;;;;;;;20.11;25.09;100777.48;1696258;84;25856;-62
2022/04/22 10:33:11;;;;;;;5.78;4.12;;;;;;;20.19;24.85;100771.86;1696578;83;25827;-61
2022/04/22 10:35:41;;;;;;;6.08;3.83;;;;;;;20.27;24.94;100764.88;1696440;83;27676;-61
2022/04/22 10:38:38;;;;;;;9.95;4.55;;;;;;;20.26;24.65;100770.02;1696370;84;25763;-62
2022/04/22 10:41:16;;;;;;;8.40;3.95;;;;;;;20.23;24.39;100770.94;1659871;86;25805;-62
2022/04/22 10:49:17;;;;;;;7.95;4.12;;;;;;;19.94;25.23;100766.87;1666295;84;27460;-62
2022/04/22 10:52:18;;;;;;;5.12;3.90;;;;;;;19.84;25.52;100764.97;1688179;84;26205;-62
2022/04/22 10:55:02;;;;;;;5.20;3.92;;;;;;;19.73;25.23;100770.42;1687299;84;25849;-62
2022/04/22 10:57:31;;;;;;;16.82;4.03;;;;;;;19.64;25.63;100771.09;1688308;84;25811;-61
2022/04/22 11:00:12;;;;;;;5.33;3.60;;;;;;;19.59;25.30;100764.53;1700096;84;25783;-61
2022/04/22 11:02:42;;;;;;;8.35;3.60;;;;;;;19.50;25.34;100766.53;1700401;84;27489;-62
2022/04/22 11:05:30;;;;;;;11.85;4.22;;;;;;;19.45;25.51;100759.47;1700054;84;25693;-64
2022/04/22 11:07:58;;;;;;;11.15;4.83;;;;;;;19.44;26.03;100761.88;1700547;84;25709;-61
2022/04/22 11:10:49;;;;;;;12.28;4.90;;;;;;;19.45;25.60;100748.05;1700340;84;25806;-61
2022/04/22 11:13:41;;;;;;;7.92;4.78;;;;;;;19.51;26.07;100742.31;1699596;84;25655;-61
2022/04/22 11:16:26;;;;;;;20.55;5.40;;;;;;;19.55;25.89;100739.53;1693151;84;27476;-63
2022/04/22 11:19:19;;;;;;;15.90;5.03;;;;;;;19.52;26.01;100742.64;1700545;84;26567;-62
2022/04/22 11:21:52;;;;;;;14.18;5.67;;;;;;;19.37;26.49;100744.07;1700577;84;33071;-62
2022/04/22 11:24:24;;;;;;;14.70;5.42;;;;;;;19.23;26.83;100748.05;1661541;84;25824;-62
2022/04/22 11:26:52;;;;;;;12.55;6.65;;;;;;;19.17;27.02;100745.24;1660490;86;25800;-62
2022/04/22 11:29:20;;;;;;;13.10;5.95;;;;;;;19.13;27.42;100737.97;1659855;86;27528;-62
2022/04/22 11:32:13;;;;;;;8.48;5.37;;;;;;;19.10;27.92;100734.79;1659950;85;25559;-62
2022/04/22 11:34:48;;;;;;;11.18;5.87;;;;;;;19.04;28.15;100739.13;1660164;86;25812;-62
2022/04/22 11:37:19;;;;;;;8.53;5.35;;;;;;;19.06;28.32;100735.16;1659955;85;25813;-62
2022/04/22 11:39:52;;;;;;;16.62;6.80;;;;;;;19.00;28.46;100735.95;1678306;83;25837;-62
2022/04/22 11:42:17;;;;;;;12.78;5.60;;;;;;;18.91;28.58;100722.08;1713466;83;27482;-62
2022/04/22 11:45:03;;;;;;;11.53;5.85;;;;;;;18.85;28.78;100721.50;1714213;83;25731;-62
2022/04/22 11:47:31;;;;;;;12.35;5.92;;;;;;;18.75;28.95;100721.28;1709213;83;25775;-61
2022/04/22 11:49:59;;;;;;;12.98;5.83;;;;;;;18.70;29.24;100706.01;1724002;82;25810;-61
2022/04/22 11:52:29;;;;;;;11.75;6.20;;;;;;;18.73;29.45;100702.91;1734104;82;25457;-61
2022/04/22 11:55:08;;;;;;;12.50;5.42;;;;;;;18.79;29.75;100702.66;1734128;82;27400;-61
2022/04/22 11:57:37;;;;;;;10.53;5.60;;;;;;;18.85;29.93;100690.98;1732156;82;25998;-61
2022/04/22 12:05:50;;;;;;;14.80;6.22;;;;;;;19.23;29.95;100685.32;1696702;83;25739;-62
2022/04/22 12:08:17;;;;;;;11.15;5.87;;;;;;;19.14;30.24;100678.31;1721381;83;27533;-61
2022/04/22 12:10:47;;;;;;;13.03;6.15;;;;;;;19.15;30.43;100670.46;1721085;83;25779;-61
2022/04/22 12:13:16;;;;;;;14.50;6.25;;;;;;;19.32;30.73;100670.19;1721107;83;25764;-62
2022/04/22 12:15:48;;;;;;;13.75;6.85;;;;;;;19.71;30.15;100664.72;1721613;83;25758;-61
2022/04/22 12:18:36;;;;;;;13.70;6.70;;;;;;;20.23;29.82;100669.34;1686533;85;25806;-61
2022/04/22 12:21:05;;;;;;;13.95;7.35;;;;;;;20.85;29.32;100666.64;1700801;84;29632;-61
2022/04/22 12:23:38;;;;;;;14.15;6.90;;;;;;;21.60;28.18;100652.52;1670451;84;25875;-62
2022/04/22 12:26:08;;;;;;;12.93;6.90;;;;;;;22.89;27.09;100649.95;1657822;86;25804;-62